To NAV CANADA Home Page Login to a new session Search on AWWS site Disclaimer Vers la page française équivalente Tips FAQ What's new on the site To the Forecasts and Observations / NOTAM section To "File a Flight Plan" website Publications and other links Update of the User's profile FIC Telephone Numbers My Weather Data Folder Route Weather Data Regional Weather Data Local Weather Data To the Forecasts and Observations / NOTAM section
Request Generated 10/21/2018 at 06:21:19 UTC . Weather information available at that time is displayed.

METAR/TAF

SANDSPIT/BC    (show WxCam)

METAR CYZP 210600Z AUTO 24006KT 9SM BKN150 09/08 A3019 RMK SLP223=
METAR CYZP 210500Z AUTO 25006KT 9SM CLR 10/09 A3020 RMK SLP228=
METAR CYZP 210400Z AUTO 16006KT 9SM OVC140 10/09 A3021 RMK SLP231=

TAF CYZP 210038Z 2101/2113 VRB03KT P6SM FEW040
BECMG 2103/2105 18010KT
FM210900 21006KT P6SM SCT006 TEMPO 2109/2113 2SM BR BKN006 PROB40
2109/2113 1/2SM FG BKN003
RMK FCST BASED ON AUTO OBS. NXT FCST BY 210700Z=
Your time UTC time
Weather data provided by Environment Canada and NAV CANADA